createdAt,value
2019-05-19T00:01:54.956Z,16.10
2019-05-19T00:04:22.959Z,15.90
2019-05-19T00:06:50.756Z,15.70
2019-05-19T00:09:18.536Z,15.50
2019-05-19T00:11:46.424Z,15.30
2019-05-19T00:14:14.330Z,15.20
2019-05-19T00:16:42.137Z,15.30
2019-05-19T00:19:09.955Z,15.40
2019-05-19T00:21:37.735Z,15.50
2019-05-19T00:24:05.642Z,15.60
2019-05-19T00:26:33.541Z,15.60
2019-05-19T00:29:01.741Z,15.50
2019-05-19T00:31:29.563Z,15.40
2019-05-19T00:33:57.360Z,15.40
2019-05-19T00:36:25.139Z,15.30
2019-05-19T00:38:52.956Z,15.20
2019-05-19T00:41:20.751Z,15.20
2019-05-19T00:43:48.544Z,15.10
2019-05-19T00:46:16.324Z,15.20
2019-05-19T00:48:44.250Z,15.10
2019-05-19T00:51:12.258Z,15.10
2019-05-19T00:53:40.339Z,15.00
2019-05-19T00:56:08.207Z,15.10
2019-05-19T00:58:36.464Z,15.00
2019-05-19T01:01:04.339Z,15.00
2019-05-19T01:03:32.107Z,15.10
2019-05-19T01:06:00.010Z,15.30
2019-05-19T01:08:27.781Z,15.40
2019-05-19T01:10:55.568Z,15.40
2019-05-19T01:13:23.390Z,15.40
2019-05-19T01:15:51.251Z,15.50
2019-05-19T01:18:19.124Z,15.50
2019-05-19T01:20:46.926Z,15.50
2019-05-19T01:23:14.957Z,15.40
2019-05-19T01:25:42.764Z,15.50
2019-05-19T01:28:10.552Z,15.30
2019-05-19T01:30:38.347Z,15.20
2019-05-19T01:33:06.124Z,15.10
2019-05-19T01:35:33.919Z,15.00
2019-05-19T01:38:01.699Z,15.00
2019-05-19T01:40:29.488Z,15.00
2019-05-19T01:42:57.359Z,15.10
2019-05-19T01:45:25.364Z,15.20
2019-05-19T01:47:53.163Z,15.10
2019-05-19T01:50:20.947Z,15.10
2019-05-19T01:52:48.804Z,15.10
2019-05-19T01:55:16.692Z,15.00
2019-05-19T01:57:44.471Z,15.00
2019-05-19T02:00:12.621Z,15.00
2019-05-19T02:02:40.416Z,15.10
2019-05-19T02:05:09.267Z,15.10
2019-05-19T02:07:37.184Z,15.10
2019-05-19T02:10:05.471Z,15.10
2019-05-19T02:12:33.294Z,15.00
2019-05-19T02:15:01.304Z,15.00
2019-05-19T02:17:29.123Z,14.90
2019-05-19T02:19:56.895Z,15.00
2019-05-19T02:22:24.688Z,15.00
2019-05-19T02:24:52.456Z,15.10
2019-05-19T02:27:20.237Z,15.10
2019-05-19T02:29:48.043Z,15.10
2019-05-19T02:32:15.843Z,15.10
2019-05-19T02:34:43.628Z,15.00
2019-05-19T02:37:11.459Z,14.90
2019-05-19T02:39:39.309Z,14.90
2019-05-19T02:42:07.775Z,14.80
2019-05-19T02:44:36.152Z,14.80
2019-05-19T02:47:04.131Z,14.60
2019-05-19T02:49:32.289Z,14.30
2019-05-19T02:52:01.647Z,14.30
2019-05-19T02:54:29.979Z,14.20
2019-05-19T02:56:58.743Z,14.20
2019-05-19T02:59:26.694Z,14.20
2019-05-19T03:02:10.005Z,14.10
2019-05-19T03:04:37.788Z,14.20
2019-05-19T03:07:05.582Z,14.20
2019-05-19T03:09:33.357Z,14.30
2019-05-19T03:12:01.144Z,14.20
2019-05-19T03:14:28.919Z,14.20
2019-05-19T03:16:56.704Z,14.20
2019-05-19T03:19:24.518Z,14.10
2019-05-19T03:21:52.391Z,14.20
2019-05-19T03:24:20.251Z,14.00
2019-05-19T03:26:48.036Z,14.00
2019-05-19T03:29:19.190Z,14.00
2019-05-19T03:31:56.697Z,14.10
2019-05-19T03:34:25.048Z,14.20
2019-05-19T03:36:52.834Z,14.30
2019-05-19T03:39:20.617Z,14.40
2019-05-19T03:41:48.432Z,14.50
2019-05-19T03:44:16.240Z,14.60
2019-05-19T03:46:44.015Z,14.70
2019-05-19T03:49:11.788Z,14.70
2019-05-19T03:51:39.579Z,14.70
2019-05-19T03:54:07.416Z,14.80
2019-05-19T03:56:35.203Z,14.80
2019-05-19T03:59:02.985Z,14.70
2019-05-19T04:01:30.772Z,14.50
2019-05-19T04:03:58.553Z,14.30
2019-05-19T04:06:26.319Z,14.10
2019-05-19T04:08:54.103Z,14.00
2019-05-19T04:11:21.884Z,14.00
2019-05-19T04:13:49.670Z,14.00
2019-05-19T04:16:17.470Z,13.80
2019-05-19T04:18:45.269Z,13.90
2019-05-19T04:21:13.044Z,13.90
2019-05-19T04:23:40.830Z,13.80
2019-05-19T04:26:08.725Z,13.80
2019-05-19T04:28:36.771Z,13.90
2019-05-19T04:31:04.533Z,13.90
2019-05-19T04:33:32.333Z,13.90
2019-05-19T04:36:00.111Z,13.90
2019-05-19T04:38:27.884Z,13.90
2019-05-19T04:40:55.975Z,13.90
2019-05-19T04:43:23.815Z,13.90
2019-05-19T04:45:51.587Z,13.90
2019-05-19T04:48:19.376Z,14.00
2019-05-19T04:50:47.149Z,14.00
2019-05-19T04:53:14.936Z,14.10
2019-05-19T04:55:43.022Z,14.30
2019-05-19T04:58:10.815Z,14.20
2019-05-19T05:00:38.606Z,14.30
2019-05-19T05:03:06.676Z,14.30
2019-05-19T05:05:34.460Z,14.40
2019-05-19T05:08:02.254Z,14.50
2019-05-19T05:10:30.034Z,14.40
2019-05-19T05:12:57.812Z,14.30
2019-05-19T05:15:25.701Z,14.20
2019-05-19T05:17:53.499Z,14.30
2019-05-19T05:20:21.355Z,14.30
2019-05-19T05:22:49.409Z,14.30
2019-05-19T05:25:17.264Z,14.30
2019-05-19T05:27:45.076Z,14.30
2019-05-19T05:30:14.122Z,14.30
2019-05-19T05:32:42.011Z,14.40
2019-05-19T05:35:09.823Z,14.40
2019-05-19T05:37:37.608Z,14.40
2019-05-19T05:40:05.757Z,14.50
2019-05-19T05:42:33.708Z,14.60
2019-05-19T05:45:01.656Z,14.70
2019-05-19T05:47:29.451Z,14.70
2019-05-19T05:49:57.233Z,14.80
2019-05-19T05:52:37.551Z,14.90
2019-05-19T05:54:54.520Z,14.90
2019-05-19T05:57:22.315Z,15.00
2019-05-19T05:59:50.085Z,15.10
2019-05-19T06:02:17.855Z,15.10
2019-05-19T06:04:45.660Z,15.10
2019-05-19T06:07:13.432Z,15.10
2019-05-19T06:09:41.224Z,15.20
2019-05-19T06:12:09.076Z,15.30
2019-05-19T06:14:36.873Z,15.30
2019-05-19T06:17:04.644Z,15.40
2019-05-19T06:19:32.459Z,15.50
2019-05-19T06:22:00.243Z,15.60
2019-05-19T06:24:28.037Z,15.50
2019-05-19T06:26:55.804Z,15.50
2019-05-19T06:29:23.709Z,15.60
2019-05-19T06:31:51.977Z,15.70
2019-05-19T06:34:19.757Z,15.80
2019-05-19T06:36:47.525Z,15.90
2019-05-19T06:39:15.323Z,16.10
2019-05-19T06:41:43.087Z,16.20
2019-05-19T06:44:10.875Z,16.20
2019-05-19T06:46:38.979Z,16.30
2019-05-19T06:49:06.871Z,16.30
2019-05-19T06:51:34.655Z,16.40
2019-05-19T06:54:02.448Z,16.40
2019-05-19T06:56:30.232Z,16.50
2019-05-19T06:58:58.014Z,16.60
2019-05-19T07:01:25.780Z,16.70
2019-05-19T07:03:53.566Z,16.80
2019-05-19T07:06:21.337Z,16.90
2019-05-19T07:08:49.128Z,17.00
2019-05-19T07:11:16.897Z,17.10
2019-05-19T07:13:44.980Z,17.10
2019-05-19T07:16:12.795Z,17.20
2019-05-19T07:18:40.596Z,17.20
2019-05-19T07:21:08.371Z,17.30
2019-05-19T07:23:36.180Z,17.40
2019-05-19T07:26:03.951Z,17.50
2019-05-19T07:28:33.009Z,17.60
2019-05-19T07:31:00.796Z,17.70
2019-05-19T07:33:28.589Z,17.80
2019-05-19T07:35:56.368Z,17.80
2019-05-19T07:38:24.190Z,17.90
2019-05-19T07:40:52.027Z,18.10
2019-05-19T07:43:19.888Z,18.20
2019-05-19T07:45:47.704Z,18.30
2019-05-19T07:48:15.489Z,18.40
2019-05-19T07:50:43.280Z,18.50
2019-05-19T07:53:11.150Z,18.50
2019-05-19T07:55:38.927Z,18.60
2019-05-19T07:58:06.702Z,18.70
2019-05-19T08:00:34.672Z,18.80
2019-05-19T08:03:02.473Z,18.90
2019-05-19T08:05:30.379Z,19.00
2019-05-19T08:07:58.227Z,19.10
2019-05-19T08:10:26.356Z,19.20
2019-05-19T08:12:54.408Z,19.30
2019-05-19T08:15:22.256Z,19.40
2019-05-19T08:17:50.059Z,19.50
2019-05-19T08:20:17.918Z,19.60
2019-05-19T08:22:45.690Z,19.60
2019-05-19T08:25:13.652Z,19.70
2019-05-19T08:27:41.430Z,19.70
2019-05-19T08:30:09.492Z,19.90
2019-05-19T08:32:37.300Z,20.00
2019-05-19T08:35:05.206Z,20.10
2019-05-19T08:37:33.039Z,20.20
2019-05-19T08:40:00.865Z,20.20
2019-05-19T08:42:28.693Z,20.30
2019-05-19T08:44:56.502Z,20.40
2019-05-19T08:47:24.267Z,20.60
2019-05-19T08:49:52.044Z,20.60
2019-05-19T08:52:19.833Z,20.70
2019-05-19T08:54:47.616Z,20.70
2019-05-19T08:57:15.407Z,20.80
2019-05-19T08:59:43.180Z,20.70
2019-05-19T09:02:11.027Z,20.80
2019-05-19T09:04:38.824Z,20.80
2019-05-19T09:07:06.668Z,20.70
2019-05-19T09:09:34.451Z,20.90
2019-05-19T09:12:02.243Z,21.00
2019-05-19T09:14:30.032Z,21.20
2019-05-19T09:16:57.836Z,21.30
2019-05-19T09:19:25.956Z,21.30
2019-05-19T09:21:53.843Z,21.40
2019-05-19T09:24:30.176Z,21.50
2019-05-19T09:26:51.523Z,21.60
2019-05-19T09:29:19.571Z,21.70
2019-05-19T09:31:47.356Z,21.60
2019-05-19T09:34:15.126Z,21.60
2019-05-19T09:36:42.923Z,21.70
2019-05-19T09:39:10.701Z,21.90
2019-05-19T09:41:38.565Z,21.90
2019-05-19T09:44:06.464Z,21.80
2019-05-19T09:46:34.247Z,21.90
2019-05-19T09:49:27.568Z,22.10
2019-05-19T09:51:55.362Z,22.10
2019-05-19T09:54:23.138Z,21.90
2019-05-19T09:56:50.928Z,21.90
2019-05-19T09:59:18.709Z,22.00
2019-05-19T10:01:46.496Z,22.10
2019-05-19T10:04:14.281Z,22.20
2019-05-19T10:06:42.121Z,22.20
2019-05-19T10:09:16.540Z,22.10
2019-05-19T10:11:55.593Z,22.00
2019-05-19T10:14:23.380Z,21.70
2019-05-19T10:16:51.152Z,21.70
2019-05-19T10:19:18.974Z,21.70
2019-05-19T10:21:46.759Z,21.80
2019-05-19T10:24:14.543Z,21.70
2019-05-19T10:26:42.307Z,21.70
2019-05-19T10:29:10.109Z,21.70
2019-05-19T10:31:37.915Z,21.80
2019-05-19T10:34:05.711Z,21.90
2019-05-19T10:36:33.503Z,22.10
2019-05-19T10:39:01.313Z,22.20
2019-05-19T10:41:29.076Z,22.10
2019-05-19T10:44:00.770Z,22.10
2019-05-19T10:46:28.930Z,22.10
2019-05-19T10:48:56.790Z,22.30
2019-05-19T10:51:24.559Z,22.50
2019-05-19T10:53:52.347Z,22.40
2019-05-19T10:56:20.207Z,22.40
2019-05-19T10:58:47.995Z,22.40
2019-05-19T11:01:15.794Z,22.60
2019-05-19T11:03:43.604Z,22.60
2019-05-19T11:06:11.434Z,22.70
2019-05-19T11:08:39.228Z,22.60
2019-05-19T11:11:07.019Z,22.60
2019-05-19T11:13:34.811Z,23.00
2019-05-19T11:16:02.824Z,23.10
2019-05-19T11:18:30.621Z,23.20
2019-05-19T11:20:58.413Z,23.30
2019-05-19T11:23:26.199Z,23.50
2019-05-19T11:25:54.148Z,23.70
2019-05-19T11:28:22.080Z,23.50
2019-05-19T11:30:49.831Z,23.60
2019-05-19T11:33:17.900Z,23.80
2019-05-19T11:35:45.690Z,24.00
2019-05-19T11:38:13.455Z,24.20
2019-05-19T11:40:41.240Z,24.00
2019-05-19T11:43:09.019Z,24.00
2019-05-19T11:45:36.852Z,24.10
2019-05-19T11:48:04.623Z,24.20
2019-05-19T11:50:32.797Z,24.10
2019-05-19T11:53:00.588Z,24.30
2019-05-19T11:55:28.454Z,24.00
2019-05-19T11:57:56.230Z,24.20
2019-05-19T12:00:24.046Z,23.80
2019-05-19T12:02:51.872Z,24.00
2019-05-19T12:05:19.732Z,24.60
2019-05-19T12:07:47.541Z,25.10
2019-05-19T12:10:15.412Z,25.70
2019-05-19T12:12:43.176Z,26.40
2019-05-19T12:15:12.066Z,26.70
2019-05-19T12:17:39.836Z,26.60
2019-05-19T12:20:07.675Z,27.00
2019-05-19T12:22:35.468Z,27.30
2019-05-19T12:25:03.362Z,27.80
2019-05-19T12:27:31.185Z,28.10
2019-05-19T12:29:58.992Z,28.50
2019-05-19T12:32:26.777Z,28.30
2019-05-19T12:34:54.556Z,28.70
2019-05-19T12:37:22.334Z,28.40
2019-05-19T12:39:50.126Z,28.20
2019-05-19T12:42:17.901Z,28.20
2019-05-19T12:44:45.845Z,28.80
2019-05-19T12:47:13.621Z,29.00
2019-05-19T12:49:41.503Z,29.60
2019-05-19T12:52:09.284Z,29.50
2019-05-19T12:54:37.151Z,29.20
2019-05-19T12:57:04.959Z,29.70
2019-05-19T12:59:33.147Z,30.20
2019-05-19T13:02:00.916Z,29.80
2019-05-19T13:04:28.780Z,29.60
2019-05-19T13:06:56.558Z,29.30
2019-05-19T13:09:24.396Z,29.40
2019-05-19T13:11:52.185Z,30.50
2019-05-19T13:14:20.049Z,30.30
2019-05-19T13:16:47.839Z,30.30
2019-05-19T13:19:15.637Z,29.60
2019-05-19T13:21:43.420Z,30.40
2019-05-19T13:24:11.202Z,30.10
2019-05-19T13:29:18.891Z,30.30
2019-05-19T13:31:46.675Z,28.90
2019-05-19T13:34:14.683Z,29.30
2019-05-19T13:36:42.560Z,29.50
2019-05-19T13:39:10.383Z,29.90
2019-05-19T13:41:38.172Z,29.30
2019-05-19T13:44:05.988Z,29.10
2019-05-19T13:46:33.764Z,29.20
2019-05-19T13:49:01.552Z,29.50
2019-05-19T13:51:29.344Z,30.10
2019-05-19T13:53:57.147Z,29.70
2019-05-19T13:56:24.947Z,28.70
2019-05-19T13:58:52.995Z,28.90
2019-05-19T14:01:28.739Z,29.20
2019-05-19T14:03:52.120Z,29.80
2019-05-19T14:06:19.789Z,29.40
2019-05-19T14:08:47.559Z,28.80
2019-05-19T14:11:15.344Z,28.20
2019-05-19T14:13:43.142Z,27.60
2019-05-19T14:16:10.936Z,26.90
2019-05-19T14:18:38.776Z,27.20
2019-05-19T14:21:06.599Z,27.50
2019-05-19T14:23:34.383Z,27.80
2019-05-19T14:26:02.167Z,27.80
2019-05-19T14:28:29.944Z,28.10
2019-05-19T14:30:57.760Z,27.80
2019-05-19T14:33:25.536Z,27.60
2019-05-19T14:35:53.380Z,28.10
2019-05-19T14:38:21.156Z,28.40
2019-05-19T14:40:48.955Z,28.80
2019-05-19T14:43:17.684Z,29.50
2019-05-19T14:45:45.487Z,28.90
2019-05-19T14:48:13.248Z,28.20
2019-05-19T14:50:41.049Z,28.20
2019-05-19T14:53:08.811Z,27.80
2019-05-19T14:55:36.660Z,26.80
2019-05-19T14:58:04.456Z,26.80
2019-05-19T15:00:32.237Z,26.80
2019-05-19T15:03:00.025Z,26.50
2019-05-19T15:05:27.805Z,26.30
2019-05-19T15:07:55.591Z,26.10
2019-05-19T15:10:23.364Z,25.90
2019-05-19T15:12:51.172Z,25.70
2019-05-19T15:15:19.015Z,25.90
2019-05-19T15:17:47.091Z,26.10
2019-05-19T15:20:15.271Z,26.10
2019-05-19T15:22:43.326Z,25.80
2019-05-19T15:25:11.269Z,25.80
2019-05-19T15:27:39.050Z,25.80
2019-05-19T15:30:13.043Z,25.90
2019-05-19T15:32:36.747Z,26.00
2019-05-19T15:35:04.819Z,26.00
2019-05-19T15:37:32.608Z,26.20
2019-05-19T15:40:00.392Z,26.40
2019-05-19T15:42:28.171Z,26.70
2019-05-19T15:44:56.024Z,26.60
2019-05-19T15:47:23.884Z,26.20
2019-05-19T15:49:51.715Z,25.60
2019-05-19T15:52:19.504Z,25.30
2019-05-19T15:54:47.280Z,25.10
2019-05-19T15:57:15.107Z,25.00
2019-05-19T15:59:43.156Z,25.00
2019-05-19T16:02:10.956Z,25.10
2019-05-19T16:04:38.740Z,25.10
2019-05-19T16:07:06.864Z,25.10
2019-05-19T16:09:34.640Z,25.00
2019-05-19T16:12:02.425Z,24.90
2019-05-19T16:14:30.208Z,25.00
2019-05-19T16:16:58.339Z,25.20
2019-05-19T16:19:26.138Z,25.40
2019-05-19T16:21:54.492Z,25.30
2019-05-19T16:24:22.324Z,25.20
2019-05-19T16:26:50.104Z,25.00
2019-05-19T16:29:17.883Z,25.10
2019-05-19T16:31:45.664Z,25.00
2019-05-19T16:34:13.452Z,24.90
2019-05-19T16:36:41.220Z,25.00
2019-05-19T16:39:09.075Z,24.90
2019-05-19T16:41:36.840Z,24.90
2019-05-19T16:44:04.699Z,25.10
2019-05-19T16:46:32.469Z,25.20
2019-05-19T16:49:00.392Z,25.30
2019-05-19T16:51:28.162Z,25.10
2019-05-19T16:53:58.708Z,24.90
2019-05-19T16:56:26.491Z,24.90
2019-05-19T16:58:54.352Z,25.00
2019-05-19T17:01:22.196Z,25.00
2019-05-19T17:03:50.059Z,25.20
2019-05-19T17:06:18.013Z,25.30
2019-05-19T17:08:45.873Z,25.60
2019-05-19T17:11:18.275Z,25.80
2019-05-19T17:13:43.337Z,25.80
2019-05-19T17:16:11.156Z,25.60
2019-05-19T17:18:38.971Z,25.60
2019-05-19T17:21:06.750Z,25.40
2019-05-19T17:23:34.811Z,25.30
2019-05-19T17:26:02.587Z,25.10
2019-05-19T17:28:30.429Z,25.10
2019-05-19T17:30:58.240Z,25.00
2019-05-19T17:33:26.048Z,25.20
2019-05-19T17:35:53.827Z,25.30
2019-05-19T17:38:21.599Z,25.30
2019-05-19T17:40:49.383Z,25.30
2019-05-19T17:43:17.160Z,25.20
2019-05-19T17:45:44.944Z,25.20
2019-05-19T17:48:25.621Z,25.10
2019-05-19T17:50:42.681Z,24.90
2019-05-19T17:53:11.080Z,24.90
2019-05-19T17:55:38.939Z,24.80
2019-05-19T17:58:06.718Z,24.70
2019-05-19T18:00:35.639Z,24.70
2019-05-19T18:03:03.491Z,24.70
2019-05-19T18:05:31.395Z,24.70
2019-05-19T18:07:59.262Z,24.60
2019-05-19T18:10:27.140Z,24.70
2019-05-19T18:12:54.924Z,24.70
2019-05-19T18:15:22.805Z,24.80
2019-05-19T18:17:50.615Z,24.90
2019-05-19T18:20:23.632Z,24.80
2019-05-19T18:22:47.946Z,24.90
2019-05-19T18:25:15.728Z,25.00
2019-05-19T18:27:43.819Z,25.30
2019-05-19T18:30:12.606Z,25.40
2019-05-19T18:32:40.415Z,25.40
2019-05-19T18:35:08.475Z,25.50
2019-05-19T18:37:36.252Z,25.60
2019-05-19T18:40:04.479Z,25.60
2019-05-19T18:42:32.251Z,25.40
2019-05-19T18:45:00.053Z,25.30
2019-05-19T18:47:27.824Z,25.30
2019-05-19T18:49:55.742Z,25.00
2019-05-19T18:52:23.557Z,24.70
2019-05-19T18:54:51.372Z,24.50
2019-05-19T18:57:19.168Z,24.30
2019-05-19T18:59:47.929Z,24.20
2019-05-19T19:02:16.260Z,24.10
2019-05-19T19:04:44.079Z,24.00
2019-05-19T19:07:11.876Z,24.00
2019-05-19T19:09:39.652Z,23.90
2019-05-19T19:12:07.463Z,23.80
2019-05-19T19:14:35.310Z,23.70
2019-05-19T19:17:03.096Z,23.70
2019-05-19T19:19:30.884Z,23.70
2019-05-19T19:21:58.736Z,23.70
2019-05-19T19:24:26.527Z,23.60
2019-05-19T19:26:54.364Z,23.60
2019-05-19T19:29:22.454Z,23.60
2019-05-19T19:31:50.305Z,23.50
2019-05-19T19:34:18.120Z,23.50
2019-05-19T19:36:46.050Z,23.40
2019-05-19T19:39:13.825Z,23.40
2019-05-19T19:41:41.619Z,23.30
2019-05-19T19:44:09.524Z,23.30
2019-05-19T19:46:37.324Z,23.30
2019-05-19T19:49:05.103Z,23.20
2019-05-19T19:51:32.932Z,23.20
2019-05-19T19:54:00.695Z,23.10
2019-05-19T19:56:28.502Z,23.00
2019-05-19T19:58:56.577Z,23.00
2019-05-19T20:01:24.343Z,22.90
2019-05-19T20:03:52.112Z,22.90
2019-05-19T20:06:19.915Z,22.90
2019-05-19T20:08:47.756Z,22.90
2019-05-19T20:11:15.557Z,22.90
2019-05-19T20:13:43.346Z,22.80
2019-05-19T20:16:11.352Z,22.80
2019-05-19T20:18:39.147Z,22.70
2019-05-19T20:21:06.984Z,22.80
2019-05-19T20:23:34.779Z,22.70
2019-05-19T20:26:02.620Z,22.70
2019-05-19T20:28:30.399Z,22.70
2019-05-19T20:30:58.265Z,22.70
2019-05-19T20:33:26.089Z,22.70
2019-05-19T20:35:53.905Z,22.60
2019-05-19T20:38:21.720Z,22.50
2019-05-19T20:40:49.600Z,22.20
2019-05-19T20:43:17.720Z,21.80
2019-05-19T20:45:45.756Z,21.70
2019-05-19T20:48:13.815Z,21.50
2019-05-19T20:50:41.618Z,21.40
2019-05-19T20:53:09.883Z,21.40
2019-05-19T20:55:37.714Z,21.40
2019-05-19T20:58:05.510Z,21.30
2019-05-19T21:00:33.282Z,21.10
2019-05-19T21:03:01.097Z,20.90
2019-05-19T21:05:28.880Z,20.80
2019-05-19T21:07:56.655Z,20.70
2019-05-19T21:10:24.434Z,20.70
2019-05-19T21:12:52.209Z,20.60
2019-05-19T21:15:20.158Z,20.60
2019-05-19T21:17:48.223Z,20.60
2019-05-19T21:20:16.148Z,20.60
2019-05-19T21:22:43.936Z,20.50
2019-05-19T21:25:11.801Z,20.50
2019-05-19T21:27:39.691Z,20.50
2019-05-19T21:30:07.664Z,20.50
2019-05-19T21:32:35.463Z,20.50
2019-05-19T21:35:03.520Z,20.50
2019-05-19T21:37:31.346Z,20.50
2019-05-19T21:39:59.168Z,20.50
2019-05-19T21:42:26.969Z,20.50
2019-05-19T21:44:54.748Z,20.40
2019-05-19T21:47:22.546Z,20.40
2019-05-19T21:49:50.332Z,20.30
2019-05-19T21:52:18.125Z,20.20
2019-05-19T21:54:45.908Z,20.10
2019-05-19T21:57:13.683Z,20.00
2019-05-19T21:59:41.579Z,20.00
2019-05-19T22:02:09.728Z,20.00
2019-05-19T22:04:37.520Z,20.00
2019-05-19T22:07:13.374Z,20.00
2019-05-19T22:09:41.158Z,20.00
2019-05-19T22:12:09.295Z,19.90
2019-05-19T22:14:37.089Z,19.90
2019-05-19T22:17:04.844Z,19.80
2019-05-19T22:19:32.671Z,19.70
2019-05-19T22:22:01.126Z,19.60
2019-05-19T22:24:29.290Z,19.60
2019-05-19T22:26:57.375Z,19.70
2019-05-19T22:29:25.463Z,19.60
2019-05-19T22:31:53.237Z,19.50
2019-05-19T22:34:21.322Z,19.50
2019-05-19T22:36:49.256Z,19.60
2019-05-19T22:39:17.044Z,19.60
2019-05-19T22:41:44.824Z,19.50
2019-05-19T22:44:12.611Z,19.40
2019-05-19T22:46:40.388Z,19.40
2019-05-19T22:49:08.191Z,19.40
2019-05-19T22:51:36.239Z,19.40
2019-05-19T22:54:04.028Z,19.40
2019-05-19T22:56:31.856Z,19.30
2019-05-19T22:58:59.668Z,19.30
2019-05-19T23:01:27.436Z,19.30
2019-05-19T23:03:55.226Z,19.30
2019-05-19T23:06:23.234Z,19.30
2019-05-19T23:08:51.027Z,19.10
2019-05-19T23:11:18.848Z,19.10
2019-05-19T23:13:46.631Z,19.10
2019-05-19T23:16:14.486Z,19.00
2019-05-19T23:18:42.264Z,19.10
2019-05-19T23:21:10.056Z,19.10
2019-05-19T23:23:37.860Z,19.10
2019-05-19T23:26:05.647Z,19.10
2019-05-19T23:28:33.627Z,19.10
2019-05-19T23:31:01.429Z,19.10
2019-05-19T23:33:29.212Z,19.10
2019-05-19T23:35:57.000Z,19.10
2019-05-19T23:38:24.795Z,19.20
2019-05-19T23:40:52.588Z,19.30
2019-05-19T23:43:20.359Z,19.30
2019-05-19T23:45:48.168Z,19.30
2019-05-19T23:48:15.979Z,19.30
2019-05-19T23:50:43.830Z,19.20
2019-05-19T23:53:11.615Z,19.10
2019-05-19T23:55:39.412Z,19.10
2019-05-19T23:58:07.172Z,19.10
